Dayton, OH (45449)

4:29 PM EDT on June 02, 2015 (GMT -0400)
Hillgrove | | Change Station
CLOSE
Current Station
Personal Weather Station
Location: Miamisburg, OH
Elevation: 784 ft
Nearby Weather Stations

Elev 784 ft 39.64 °N, 84.27 °W | Updated 51 seconds ago

Overcast
Overcast
64.3 °F
Feels Like 64.3 °F
N
2.0
Wind Variable Wind from West
Gusts 2.0 mph

Today
High -- | Low -- °F
--% Chance of Precip.
Yesterday
High -- | Low -- °F
Precip. -- in
6:10 AM 8:59 PM
Full, 100% visible
Pressure 30.11 in
Visibility 10.0 miles
Clouds Overcast 1800 ft
Dew Point 55 °F
Humidity 72%
Rainfall 0.00 in
Snow Depth Not available.
UV 3 out of 12
Pollen 7.40 out of 12
Air Quality Not available.
Flu Activity Sporadic
METAR KMGY 021953Z AUTO VRB06KT 10SM OVC018 16/11 A3011 RMK AO2 SLP195 T01560111

More Conditions Fewer Conditions

Pressure 30.11 in
Visibility 10.0 miles
Clouds Overcast 1800 ft
Dew Point 55 °F
Humidity 72%
Rainfall 0.00 in
Snow Depth Not available.
UV 3 out of 12
Pollen 7.40 out of 12
Air Quality Not available.
Flu Activity Sporadic
METAR KMGY 021953Z AUTO VRB06KT 10SM OVC018 16/11 A3011 RMK AO2 SLP195 T01560111

More Conditions Fewer Conditions

10-Day Weather Forecast

Almanac

Astronomy

Jun. 02, 2015 Rise Set
Actual Time
Civil Twilight
Nautical Twilight
Astronomical Twilight
Moon
Length of Visible Light
Length of Day
Tomorrow will be .
, % of the Moon is Illuminated

Today's Extremes

State Highs State Lows

Community

WunderPhotos

Upload Photos

1,826,025 photos uploaded!

WunderBlogs® & News

Nearby

Air Quality

  Air Quality AQ Index Pollutant
Not available.

Snow Depth

Station Depth Elevation

Earthquake Activity

City Distance Mag. Time & Date
Minimum magnitude displayed is 2.5.

Coastal Water Temperatures

Place Temperature

Stations

Nearby Weather Stations

Station Location Temp. Windchill Dew Point Humidity Wind Precip. Elev Updated Type